createdAt,value
2022-10-18T00:00:58.082Z,101823.53
2022-10-18T00:03:00.605Z,101855.22
2022-10-18T00:05:03.661Z,101846.13
2022-10-18T00:07:06.387Z,101856.81
2022-10-18T00:09:18.841Z,101873.59
2022-10-18T00:11:21.366Z,101807.13
2022-10-18T00:13:24.613Z,101879.50
2022-10-18T00:15:27.378Z,101845.16
2022-10-18T00:17:30.258Z,101851.38
2022-10-18T00:19:33.020Z,101827.31
2022-10-18T00:21:35.704Z,101853.59
2022-10-18T00:23:38.729Z,101854.13
2022-10-18T00:25:41.251Z,101821.19
2022-10-18T00:27:43.886Z,101856.94
2022-10-18T00:29:46.585Z,101837.56
2022-10-18T00:31:49.153Z,101863.63
2022-10-18T00:33:55.298Z,101853.69
2022-10-18T00:36:00.980Z,101876.28
2022-10-18T00:38:03.518Z,101862.84
2022-10-18T00:40:06.779Z,101856.50
2022-10-18T00:42:17.479Z,101859.22
2022-10-18T00:44:25.764Z,101883.41
2022-10-18T00:46:35.046Z,101879.19
2022-10-18T00:48:37.615Z,101885.84
2022-10-18T00:50:40.860Z,101884.81
2022-10-18T00:52:53.653Z,101843.91
2022-10-18T00:54:59.668Z,101813.56
2022-10-18T00:57:03.269Z,101855.28
2022-10-18T00:59:06.077Z,101842.09
2022-10-18T01:01:08.835Z,101860.28
2022-10-18T01:03:11.447Z,101890.25
2022-10-18T01:05:17.228Z,101888.66
2022-10-18T01:07:35.604Z,101868.06
2022-10-18T01:09:52.154Z,101884.13
2022-10-18T01:12:24.754Z,101839.88
2022-10-18T01:14:45.454Z,101842.84
2022-10-18T01:16:59.151Z,101868.63
2022-10-18T01:19:06.825Z,101892.38
2022-10-18T01:21:20.493Z,101887.56
2022-10-18T01:24:09.983Z,101891.75
2022-10-18T01:26:39.730Z,101891.69
2022-10-18T01:29:22.706Z,101885.78
2022-10-18T01:31:45.641Z,101887.09
2022-10-18T01:33:54.127Z,101890.00
2022-10-18T01:36:10.099Z,101860.31
2022-10-18T01:38:17.985Z,101844.97
2022-10-18T01:40:23.844Z,101856.78
2022-10-18T01:42:27.071Z,101856.31
2022-10-18T01:44:33.306Z,101849.81
2022-10-18T01:46:37.461Z,101850.94
2022-10-18T01:48:40.131Z,101872.63
2022-10-18T01:50:42.841Z,101861.13
2022-10-18T01:52:51.987Z,101863.78
2022-10-18T01:54:56.085Z,101884.38
2022-10-18T01:57:22.755Z,101906.06
2022-10-18T01:59:56.576Z,101898.91
2022-10-18T02:02:20.965Z,101873.50
2022-10-18T02:04:49.984Z,101852.13
2022-10-18T02:07:02.004Z,101813.59
2022-10-18T02:09:18.359Z,101889.13
2022-10-18T02:11:21.302Z,101853.78
2022-10-18T02:13:29.242Z,101895.09
2022-10-18T02:15:36.318Z,101839.94
2022-10-18T02:17:40.341Z,101879.09
2022-10-18T02:19:48.430Z,101875.94
2022-10-18T02:21:54.153Z,101862.50
2022-10-18T02:23:59.102Z,101901.56
2022-10-18T02:26:02.198Z,101870.47
2022-10-18T02:28:05.909Z,101910.59
2022-10-18T02:30:09.946Z,101898.47
2022-10-18T02:32:31.078Z,101899.59
2022-10-18T02:34:46.931Z,101895.41
2022-10-18T02:36:56.766Z,101875.31
2022-10-18T02:39:07.338Z,101902.88
2022-10-18T02:41:09.867Z,101822.25
2022-10-18T02:43:14.515Z,101903.69
2022-10-18T02:45:17.662Z,101865.03
2022-10-18T02:47:20.165Z,101886.75
2022-10-18T02:49:23.478Z,101870.16
2022-10-18T02:51:26.256Z,101882.16
2022-10-18T02:53:29.543Z,101906.25
2022-10-18T02:55:32.193Z,101905.72
2022-10-18T02:57:38.482Z,101849.19
2022-10-18T02:59:41.054Z,101735.66
2022-10-18T03:01:43.666Z,101821.63
2022-10-18T03:03:46.265Z,101898.25
2022-10-18T03:05:53.021Z,101907.44
2022-10-18T03:07:57.903Z,101857.06
2022-10-18T03:10:00.446Z,101884.44
2022-10-18T03:12:03.077Z,101861.97
2022-10-18T03:14:05.589Z,101883.50
2022-10-18T03:16:08.102Z,101897.69
2022-10-18T03:18:11.117Z,101895.56
2022-10-18T03:20:13.967Z,101863.25
2022-10-18T03:22:16.533Z,101878.31
2022-10-18T03:24:19.111Z,101908.56
2022-10-18T03:26:22.644Z,101895.28
2022-10-18T03:28:25.279Z,101923.66
2022-10-18T03:30:27.917Z,101894.22
2022-10-18T03:32:31.977Z,101891.63
2022-10-18T03:34:34.860Z,101893.22
2022-10-18T03:36:38.783Z,101887.34
2022-10-18T03:38:41.565Z,101914.66
2022-10-18T03:40:44.086Z,101906.13
2022-10-18T03:42:46.838Z,101915.84
2022-10-18T03:44:49.404Z,101875.34
2022-10-18T03:46:52.014Z,101924.34
2022-10-18T03:48:54.565Z,101897.03
2022-10-18T03:50:57.126Z,101842.91
2022-10-18T03:52:59.684Z,101916.25
2022-10-18T03:55:09.305Z,101906.94
2022-10-18T03:57:11.883Z,101824.63
2022-10-18T03:59:14.466Z,65468.00
2022-10-18T04:01:17.278Z,65468.00
2022-10-18T04:03:22.246Z,65468.00
2022-10-18T04:05:26.857Z,65468.00
2022-10-18T04:07:30.748Z,65468.00
2022-10-18T04:09:33.337Z,65468.00
2022-10-18T04:11:36.909Z,65468.00
2022-10-18T04:13:40.229Z,65468.00
2022-10-18T04:15:43.628Z,65468.00
2022-10-18T04:17:46.723Z,65468.00
2022-10-18T04:19:49.556Z,65468.00
2022-10-18T04:21:52.066Z,65468.00
2022-10-18T04:23:54.654Z,65468.00
2022-10-18T04:25:57.198Z,65468.00
2022-10-18T04:27:59.712Z,65468.00
2022-10-18T04:30:03.233Z,65468.00
2022-10-18T04:32:05.947Z,65468.00
2022-10-18T04:34:09.641Z,65468.00
2022-10-18T04:36:12.591Z,65468.00
2022-10-18T04:38:15.182Z,65468.00
2022-10-18T04:40:18.002Z,65468.00
2022-10-18T04:42:21.819Z,65468.00
2022-10-18T04:44:24.380Z,65468.00
2022-10-18T04:46:26.973Z,65468.00
2022-10-18T04:48:29.521Z,65468.00
2022-10-18T04:50:32.097Z,65468.00
2022-10-18T04:52:34.780Z,101910.38
2022-10-18T04:54:37.638Z,101928.63
2022-10-18T04:56:40.204Z,101923.28
2022-10-18T04:58:42.889Z,101912.03
2022-10-18T05:00:45.974Z,101925.50
2022-10-18T05:02:48.604Z,101906.44
2022-10-18T05:04:51.772Z,101897.56
2022-10-18T05:06:54.362Z,101917.66
2022-10-18T05:08:57.033Z,101865.16
2022-10-18T05:10:59.763Z,101793.22
2022-10-18T05:13:02.317Z,101858.59
2022-10-18T05:15:05.578Z,101890.03
2022-10-18T05:17:08.109Z,101790.94
2022-10-18T05:19:11.071Z,101901.81
2022-10-18T05:21:13.682Z,101804.34
2022-10-18T05:23:16.248Z,101890.75
2022-10-18T05:25:18.760Z,101808.34
2022-10-18T05:27:35.944Z,101884.34
2022-10-18T05:29:38.474Z,101888.59
2022-10-18T05:32:31.349Z,101926.31
2022-10-18T05:34:34.594Z,101904.06
2022-10-18T05:36:37.137Z,101879.13
2022-10-18T05:38:45.394Z,101903.06
2022-10-18T05:40:48.040Z,101817.47
2022-10-18T05:42:53.701Z,101834.88
2022-10-18T05:44:56.252Z,101927.06
2022-10-18T05:46:58.824Z,101906.13
2022-10-18T05:49:01.468Z,101872.97
2022-10-18T05:51:04.264Z,101906.13
2022-10-18T05:53:36.842Z,101898.69
2022-10-18T05:55:41.643Z,101881.00
2022-10-18T05:57:44.144Z,101787.28
2022-10-18T05:59:46.754Z,101769.13
2022-10-18T06:01:57.369Z,101895.47
2022-10-18T06:03:59.967Z,101888.81
2022-10-18T06:06:13.294Z,101907.53
2022-10-18T06:08:15.852Z,101892.75
2022-10-18T06:10:18.522Z,101873.56
2022-10-18T06:12:21.072Z,101882.91
2022-10-18T06:14:23.721Z,101871.84
2022-10-18T06:16:31.958Z,101884.19
2022-10-18T06:19:00.517Z,101874.06
2022-10-18T06:21:03.937Z,101886.94
2022-10-18T06:23:06.940Z,101910.44
2022-10-18T06:25:09.925Z,101846.44
2022-10-18T06:27:12.506Z,101877.78
2022-10-18T06:29:15.175Z,101887.19
2022-10-18T06:31:35.056Z,101891.22
2022-10-18T06:33:37.686Z,101883.22
2022-10-18T06:35:40.329Z,101842.59
2022-10-18T06:39:50.327Z,101896.16
2022-10-18T06:41:54.002Z,101882.53
2022-10-18T06:43:58.488Z,101875.56
2022-10-18T06:46:04.830Z,101905.28
2022-10-18T06:48:07.607Z,101873.63
2022-10-18T06:50:11.721Z,101888.09
2022-10-18T06:52:15.334Z,101816.03
2022-10-18T06:54:19.004Z,101886.25
2022-10-18T06:56:23.121Z,101902.81
2022-10-18T06:58:25.653Z,101835.94
2022-10-18T07:00:31.708Z,101900.28
2022-10-18T07:02:44.450Z,101935.06
2022-10-18T07:04:47.448Z,101810.56
2022-10-18T07:09:27.467Z,101749.69
2022-10-18T07:11:30.088Z,101876.63
2022-10-18T07:13:33.959Z,101930.94
2022-10-18T07:15:38.682Z,101893.22
2022-10-18T07:18:06.365Z,101907.75
2022-10-18T07:20:09.400Z,101905.38
2022-10-18T07:22:12.636Z,101890.13
2022-10-18T07:24:21.888Z,101905.69
2022-10-18T07:26:33.572Z,101897.63
2022-10-18T07:28:39.259Z,101952.25
2022-10-18T07:31:06.388Z,101949.63
2022-10-18T07:33:35.219Z,101877.84
2022-10-18T07:36:10.122Z,101961.38
2022-10-18T07:38:15.138Z,101928.16
2022-10-18T07:40:17.764Z,101939.38
2022-10-18T07:42:20.653Z,101834.78
2022-10-18T07:44:23.293Z,101933.72
2022-10-18T07:46:27.762Z,101913.84
2022-10-18T07:48:35.594Z,101915.53
2022-10-18T07:50:38.205Z,101934.03
2022-10-18T07:52:40.802Z,101882.03
2022-10-18T07:54:43.398Z,101939.38
2022-10-18T07:56:47.200Z,101939.38
2022-10-18T07:58:53.088Z,101956.00
2022-10-18T08:00:55.710Z,65468.00
2022-10-18T08:03:01.746Z,101958.78
2022-10-18T08:05:35.718Z,101915.69
2022-10-18T08:07:38.404Z,101915.69
2022-10-18T08:09:40.976Z,101856.34
2022-10-18T08:11:43.546Z,101921.97
2022-10-18T08:13:46.711Z,101950.59
2022-10-18T08:15:49.248Z,101925.72
2022-10-18T08:17:52.594Z,101940.94
2022-10-18T08:20:11.715Z,101950.81
2022-10-18T08:22:16.737Z,101972.53
2022-10-18T08:24:19.786Z,101968.50
2022-10-18T08:26:24.421Z,101970.81
2022-10-18T08:28:28.775Z,101956.34
2022-10-18T08:30:31.447Z,101954.19
2022-10-18T08:33:27.583Z,101967.81
2022-10-18T08:35:31.747Z,101931.63
2022-10-18T08:37:40.308Z,101962.97
2022-10-18T08:39:43.036Z,101963.78
2022-10-18T08:42:13.436Z,101960.25
2022-10-18T08:44:30.709Z,101953.31
2022-10-18T08:46:35.461Z,101955.16
2022-10-18T08:48:47.362Z,101925.13
2022-10-18T08:50:55.475Z,101969.50
2022-10-18T08:53:17.741Z,101947.84
2022-10-18T08:55:36.391Z,101918.00
2022-10-18T08:57:40.489Z,101972.16
2022-10-18T08:59:44.409Z,101925.00
2022-10-18T09:02:17.542Z,101946.53
2022-10-18T09:04:46.661Z,101962.63
2022-10-18T09:07:36.804Z,101962.38
2022-10-18T09:09:51.896Z,101931.63
2022-10-18T09:12:27.089Z,101949.59
2022-10-18T09:15:19.716Z,101959.06
2022-10-18T09:17:42.829Z,101956.41
2022-10-18T09:20:09.844Z,101952.94
2022-10-18T09:22:18.771Z,101946.31
2022-10-18T09:24:38.837Z,101920.47
2022-10-18T09:26:47.045Z,101945.13
2022-10-18T09:29:34.074Z,101939.06
2022-10-18T09:32:12.805Z,101888.75
2022-10-18T09:34:40.263Z,101914.44
2022-10-18T09:36:46.502Z,101907.97
2022-10-18T09:38:56.118Z,101909.88
2022-10-18T09:41:09.033Z,101917.59
2022-10-18T09:43:21.518Z,101926.94
2022-10-18T09:45:28.154Z,101817.47
2022-10-18T09:47:41.657Z,101945.28
2022-10-18T09:49:52.871Z,101943.13
2022-10-18T09:51:56.577Z,101946.28
2022-10-18T09:54:22.230Z,101972.66
2022-10-18T09:56:40.932Z,101963.19
2022-10-18T09:58:51.545Z,101963.91
2022-10-18T10:00:55.328Z,101925.25
2022-10-18T10:03:00.933Z,101883.19
2022-10-18T10:05:03.858Z,101946.88
2022-10-18T10:07:12.944Z,101961.59
2022-10-18T10:09:18.493Z,101895.09
2022-10-18T10:11:34.361Z,101948.31
2022-10-18T10:13:38.894Z,101939.75
2022-10-18T10:15:57.545Z,101943.41
2022-10-18T10:18:09.185Z,101966.41
2022-10-18T10:20:24.195Z,101952.44
2022-10-18T10:22:40.741Z,101898.13
2022-10-18T10:24:47.875Z,101969.06
2022-10-18T10:26:51.542Z,101886.91
2022-10-18T10:28:54.335Z,101864.47
2022-10-18T10:31:34.561Z,101940.03
2022-10-18T10:33:38.984Z,101874.56
2022-10-18T10:35:52.969Z,101953.88
2022-10-18T10:37:57.043Z,101946.94
2022-10-18T10:40:25.151Z,101951.03
2022-10-18T10:42:32.974Z,101937.38
2022-10-18T10:44:37.153Z,101817.53
2022-10-18T10:47:06.024Z,65468.00
2022-10-18T10:49:41.572Z,101876.50
2022-10-18T10:51:45.205Z,101876.50
2022-10-18T10:54:16.130Z,101942.59
2022-10-18T10:57:00.920Z,101930.59
2022-10-18T10:59:17.282Z,101907.38
2022-10-18T11:01:23.966Z,101924.22
2022-10-18T11:03:29.407Z,101872.84
2022-10-18T11:05:45.578Z,101926.38
2022-10-18T11:09:06.299Z,101925.06
2022-10-18T11:11:30.650Z,101866.53
2022-10-18T11:13:53.370Z,101895.53
2022-10-18T11:16:20.596Z,101867.22
2022-10-18T11:18:32.901Z,101886.00
2022-10-18T11:20:49.519Z,101780.66
2022-10-18T11:23:06.714Z,101886.63
2022-10-18T11:25:15.374Z,101877.22
2022-10-18T11:27:31.469Z,101898.63
2022-10-18T11:30:02.939Z,101914.59
2022-10-18T11:33:05.839Z,101887.19
2022-10-18T11:35:27.960Z,101916.34
2022-10-18T11:38:36.489Z,101925.91
2022-10-18T11:41:23.250Z,101889.25
2022-10-18T11:44:28.893Z,101887.34
2022-10-18T11:46:55.992Z,101921.13
2022-10-18T11:49:19.756Z,101909.97
2022-10-18T11:52:07.733Z,101899.88
2022-10-18T11:54:56.991Z,101902.59
2022-10-18T11:57:43.983Z,101906.91
2022-10-18T12:00:14.946Z,101904.78
2022-10-18T12:02:48.096Z,101907.22
2022-10-18T12:05:23.152Z,101890.03
2022-10-18T12:07:27.818Z,101893.34
2022-10-18T12:09:44.324Z,101886.66
2022-10-18T12:12:02.027Z,101867.47
2022-10-18T12:14:29.669Z,101908.69
2022-10-18T12:16:50.887Z,101899.34
2022-10-18T12:19:42.861Z,101905.03
2022-10-18T12:21:45.867Z,101890.00
2022-10-18T12:24:01.446Z,101866.81
2022-10-18T12:26:11.198Z,101895.13
2022-10-18T12:28:16.631Z,101908.75
2022-10-18T12:31:00.913Z,101906.31
2022-10-18T12:33:28.263Z,101908.97
2022-10-18T12:35:45.275Z,101891.00
2022-10-18T12:38:02.694Z,101896.56
2022-10-18T12:40:21.816Z,101861.50
2022-10-18T12:42:31.662Z,101861.50
2022-10-18T12:44:38.208Z,101876.41
2022-10-18T12:46:52.706Z,101900.78
2022-10-18T12:49:04.966Z,101674.50
2022-10-18T12:51:23.813Z,101886.06
2022-10-18T12:53:32.149Z,101877.00
2022-10-18T12:57:52.261Z,101895.72
2022-10-18T13:00:04.888Z,101871.13
2022-10-18T13:02:21.196Z,101850.78
2022-10-18T13:04:32.427Z,101894.66
2022-10-18T13:06:59.304Z,101892.84
2022-10-18T13:09:20.412Z,101853.28
2022-10-18T13:11:35.827Z,101858.38
2022-10-18T13:14:17.685Z,101882.81
2022-10-18T13:16:36.517Z,101891.88
2022-10-18T13:18:54.799Z,101885.25
2022-10-18T13:21:10.418Z,101884.97
2022-10-18T13:23:42.892Z,101870.53
2022-10-18T13:26:14.319Z,101861.75
2022-10-18T13:28:26.560Z,101869.25
2022-10-18T13:30:55.859Z,101873.50
2022-10-18T13:33:34.925Z,101853.72
2022-10-18T13:35:54.960Z,101884.22
2022-10-18T13:38:00.356Z,101840.91
2022-10-18T13:40:35.254Z,101879.19
2022-10-18T13:42:37.817Z,101846.06
2022-10-18T13:44:44.682Z,101865.59
2022-10-18T13:46:47.334Z,101888.34
2022-10-18T13:48:50.644Z,101877.97
2022-10-18T13:51:36.103Z,101878.00
2022-10-18T13:54:03.899Z,101898.81
2022-10-18T13:56:30.236Z,101893.47
2022-10-18T13:59:13.131Z,101894.03
2022-10-18T14:01:27.285Z,101881.22
2022-10-18T14:03:57.507Z,101906.31
2022-10-18T14:06:08.018Z,101914.84
2022-10-18T14:08:21.315Z,101861.91
2022-10-18T14:11:01.247Z,101909.78
2022-10-18T14:13:18.667Z,101877.91
2022-10-18T14:15:34.768Z,101908.44
2022-10-18T14:17:45.195Z,101835.19
2022-10-18T14:19:58.085Z,101888.06
2022-10-18T14:22:18.899Z,101908.97
2022-10-18T14:24:27.784Z,101909.53
2022-10-18T14:26:31.746Z,101884.88
2022-10-18T14:28:55.316Z,101880.31
2022-10-18T14:31:07.365Z,101898.69
2022-10-18T14:33:50.864Z,101906.13
2022-10-18T14:36:15.499Z,101892.16
2022-10-18T14:38:23.020Z,101882.41
2022-10-18T14:40:40.278Z,101881.53
2022-10-18T14:42:48.874Z,101898.63
2022-10-18T14:44:54.420Z,101894.53
2022-10-18T14:47:12.356Z,101921.75
2022-10-18T14:49:17.782Z,101900.34
2022-10-18T14:51:21.724Z,101923.31
2022-10-18T14:53:25.431Z,101878.31
2022-10-18T14:55:29.467Z,101891.75
2022-10-18T14:57:36.408Z,101911.50
2022-10-18T14:59:55.752Z,101908.03
2022-10-18T15:02:13.949Z,101911.75
2022-10-18T15:04:16.562Z,101830.94
2022-10-18T15:06:20.348Z,101892.44
2022-10-18T15:08:25.792Z,101812.34
2022-10-18T15:10:32.659Z,101921.25
2022-10-18T15:13:04.387Z,101892.28
2022-10-18T15:15:03.878Z,101858.88
2022-10-18T15:17:29.763Z,101866.88
2022-10-18T15:19:42.895Z,101927.44
2022-10-18T15:24:35.170Z,101929.97
2022-10-18T15:26:44.313Z,101917.97
2022-10-18T15:28:54.043Z,101923.22
2022-10-18T15:31:01.813Z,101923.19
2022-10-18T15:33:10.289Z,101922.25
2022-10-18T15:35:28.104Z,101918.09
2022-10-18T15:37:43.376Z,101895.19
2022-10-18T15:39:45.988Z,101893.69
2022-10-18T15:41:58.073Z,101925.75
2022-10-18T15:44:29.729Z,101924.00
2022-10-18T15:46:32.933Z,101880.84
2022-10-18T15:48:40.949Z,101929.75
2022-10-18T15:50:56.761Z,101864.31
2022-10-18T15:53:22.886Z,101922.06
2022-10-18T15:55:30.797Z,101922.56
2022-10-18T15:57:33.834Z,101916.50
2022-10-18T15:59:58.728Z,101904.53
2022-10-18T16:02:02.242Z,101860.75
2022-10-18T16:04:12.198Z,101900.63
2022-10-18T16:06:18.227Z,101885.22
2022-10-18T16:08:32.041Z,101939.25
2022-10-18T16:10:34.605Z,101923.22
2022-10-18T16:12:37.358Z,101854.31
2022-10-18T16:14:39.913Z,101810.03
2022-10-18T16:16:42.451Z,101898.81
2022-10-18T16:18:45.082Z,101941.66
2022-10-18T16:20:48.808Z,101920.53
2022-10-18T16:22:52.434Z,101933.97
2022-10-18T16:24:55.144Z,101916.84
2022-10-18T16:26:57.656Z,101954.72
2022-10-18T16:29:01.322Z,101951.19
2022-10-18T16:31:04.250Z,101919.88
2022-10-18T16:33:07.596Z,101845.06
2022-10-18T16:35:13.833Z,101921.47
2022-10-18T16:37:16.382Z,101881.06
2022-10-18T16:39:21.807Z,101949.06
2022-10-18T16:41:24.874Z,101933.44
2022-10-18T16:43:27.387Z,101885.88
2022-10-18T16:45:30.167Z,101922.94
2022-10-18T16:47:32.844Z,101889.34
2022-10-18T16:49:38.550Z,101898.84
2022-10-18T16:51:41.131Z,101886.22
2022-10-18T16:53:44.591Z,101964.50
2022-10-18T16:55:47.111Z,101901.88
2022-10-18T16:57:51.857Z,101962.06
2022-10-18T16:59:54.349Z,101905.13
2022-10-18T17:01:57.080Z,101923.78
2022-10-18T17:04:00.861Z,101945.19
2022-10-18T17:06:03.498Z,101863.50
2022-10-18T17:08:06.598Z,101872.47
2022-10-18T17:10:16.170Z,101966.50
2022-10-18T17:12:31.707Z,101960.63
2022-10-18T17:14:36.948Z,101904.47
2022-10-18T17:16:39.546Z,101954.31
2022-10-18T17:18:42.939Z,101899.19
2022-10-18T17:20:46.289Z,101899.88
2022-10-18T17:22:49.065Z,101944.53
2022-10-18T17:24:51.634Z,101938.19
2022-10-18T17:26:54.211Z,101921.50
2022-10-18T17:29:04.550Z,101908.22
2022-10-18T17:31:35.949Z,101956.38
2022-10-18T17:33:38.642Z,101963.75
2022-10-18T17:35:43.273Z,101936.25
2022-10-18T17:37:49.888Z,101924.13
2022-10-18T17:39:53.028Z,101928.69
2022-10-18T17:41:55.704Z,101956.00
2022-10-18T17:44:00.889Z,101903.47
2022-10-18T17:46:07.140Z,101944.25
2022-10-18T17:48:11.682Z,101985.03
2022-10-18T17:50:15.722Z,101927.19
2022-10-18T17:52:47.023Z,101990.78
2022-10-18T17:54:51.243Z,101961.16
2022-10-18T17:57:24.209Z,101969.66
2022-10-18T17:59:28.921Z,101956.97
2022-10-18T18:01:34.399Z,101908.03
2022-10-18T18:03:45.733Z,101766.41
2022-10-18T18:05:53.027Z,101854.63
2022-10-18T18:08:03.860Z,101957.09
2022-10-18T18:10:09.962Z,101879.34
2022-10-18T18:12:13.404Z,101961.94
2022-10-18T18:14:16.424Z,101929.66
2022-10-18T18:16:29.654Z,101970.53
2022-10-18T18:18:32.204Z,101958.00
2022-10-18T18:20:34.763Z,101960.50
2022-10-18T18:22:40.384Z,101924.66
2022-10-18T18:24:54.963Z,101968.31
2022-10-18T18:26:58.104Z,101995.63
2022-10-18T18:31:18.833Z,101997.53
2022-10-18T18:33:21.446Z,101984.72
2022-10-18T18:35:23.959Z,101937.13
2022-10-18T18:37:35.029Z,101971.47
2022-10-18T18:39:39.345Z,101918.66
2022-10-18T18:41:41.877Z,101972.47
2022-10-18T18:43:59.993Z,102002.56
2022-10-18T18:46:03.170Z,101990.09
2022-10-18T18:48:06.101Z,101995.03
2022-10-18T18:50:09.014Z,101980.16
2022-10-18T18:52:11.608Z,101895.31
2022-10-18T18:54:14.932Z,101866.97
2022-10-18T18:58:24.188Z,101966.66
2022-10-18T19:00:26.829Z,101927.31
2022-10-18T19:02:29.742Z,101911.59
2022-10-18T19:04:32.605Z,101987.06
2022-10-18T19:06:38.961Z,101987.13
2022-10-18T19:08:44.842Z,101998.78
2022-10-18T19:10:49.332Z,101971.81
2022-10-18T19:12:53.873Z,101998.78
2022-10-18T19:14:56.427Z,101933.84
2022-10-18T19:16:59.930Z,101966.97
2022-10-18T19:19:06.752Z,101979.28
2022-10-18T19:21:10.043Z,101975.47
2022-10-18T19:23:12.594Z,102013.06
2022-10-18T19:25:15.381Z,101996.97
2022-10-18T19:27:17.930Z,101959.00
2022-10-18T19:29:30.456Z,102024.53
2022-10-18T19:31:35.007Z,102010.06
2022-10-18T19:33:48.166Z,101925.72
2022-10-18T19:35:58.498Z,101950.78
2022-10-18T19:38:01.069Z,102019.06
2022-10-18T19:40:04.476Z,102011.00
2022-10-18T19:42:15.677Z,102034.88
2022-10-18T19:44:23.021Z,102003.78
2022-10-18T19:46:26.431Z,101992.91
2022-10-18T19:48:29.394Z,102010.66
2022-10-18T19:50:31.947Z,102007.06
2022-10-18T19:52:35.011Z,102013.53
2022-10-18T19:54:38.472Z,102025.75
2022-10-18T19:56:41.871Z,102027.78
2022-10-18T19:58:45.987Z,102017.72
2022-10-18T20:00:54.039Z,101986.28
2022-10-18T20:02:56.697Z,102040.09
2022-10-18T20:04:59.236Z,101999.34
2022-10-18T20:07:02.949Z,102019.81
2022-10-18T20:09:07.560Z,102045.28
2022-10-18T20:11:15.257Z,102060.50
2022-10-18T20:13:18.226Z,102041.31
2022-10-18T20:15:20.807Z,102063.56
2022-10-18T20:17:23.306Z,102014.13
2022-10-18T20:19:25.904Z,101985.91
2022-10-18T20:21:39.496Z,102033.19
2022-10-18T20:23:44.254Z,101948.38
2022-10-18T20:26:04.436Z,102021.94
2022-10-18T20:28:07.025Z,102054.25
2022-10-18T20:30:14.756Z,102035.00
2022-10-18T20:32:17.408Z,102037.22
2022-10-18T20:34:25.146Z,102055.75
2022-10-18T20:36:30.201Z,102072.75
2022-10-18T20:38:35.201Z,101978.56
2022-10-18T20:40:37.754Z,101948.63
2022-10-18T20:42:40.441Z,102019.50
2022-10-18T20:44:43.661Z,102057.47
2022-10-18T20:46:47.092Z,102052.81
2022-10-18T20:48:51.527Z,102079.31
2022-10-18T20:50:54.290Z,102025.66
2022-10-18T20:52:56.849Z,102056.34
2022-10-18T20:55:01.509Z,102075.47
2022-10-18T20:57:04.088Z,102059.31
2022-10-18T20:59:09.913Z,102034.38
2022-10-18T21:01:17.111Z,102099.66
2022-10-18T21:03:41.622Z,102085.13
2022-10-18T21:05:44.142Z,102073.63
2022-10-18T21:07:47.233Z,102081.56
2022-10-18T21:09:50.009Z,101983.13
2022-10-18T21:11:54.610Z,102020.59
2022-10-18T21:14:02.727Z,102094.16
2022-10-18T21:16:05.918Z,102070.75
2022-10-18T21:18:09.051Z,102055.41
2022-10-18T21:20:11.838Z,102066.75
2022-10-18T21:22:14.403Z,102051.38
2022-10-18T21:24:18.982Z,102082.91
2022-10-18T21:26:25.949Z,102045.75
2022-10-18T21:28:28.633Z,102003.31
2022-10-18T21:30:31.162Z,102048.22
2022-10-18T21:32:34.234Z,102073.34
2022-10-18T21:34:36.949Z,102041.97
2022-10-18T21:36:49.222Z,102072.94
2022-10-18T21:38:52.232Z,102019.19
2022-10-18T21:40:54.734Z,102058.34
2022-10-18T21:42:57.626Z,102013.47
2022-10-18T21:45:00.190Z,102015.91
2022-10-18T21:47:09.541Z,102041.41
2022-10-18T21:49:13.727Z,102048.09
2022-10-18T21:51:19.074Z,102077.66
2022-10-18T21:53:23.092Z,102017.19
2022-10-18T21:55:26.256Z,102053.22
2022-10-18T21:57:28.812Z,102058.88
2022-10-18T21:59:31.435Z,102054.22
2022-10-18T22:01:37.852Z,102068.97
2022-10-18T22:03:50.307Z,102061.50
2022-10-18T22:06:07.452Z,102068.97
2022-10-18T22:08:09.988Z,102021.88
2022-10-18T22:10:12.552Z,102072.22
2022-10-18T22:12:15.318Z,102051.59
2022-10-18T22:14:17.949Z,102016.44
2022-10-18T22:16:20.904Z,102061.28
2022-10-18T22:18:23.459Z,102034.63
2022-10-18T22:20:26.458Z,102081.97
2022-10-18T22:22:28.943Z,102067.41
2022-10-18T22:24:31.606Z,102043.13
2022-10-18T22:26:37.985Z,102069.03
2022-10-18T22:28:43.250Z,102065.81
2022-10-18T22:30:45.881Z,102041.56
2022-10-18T22:32:48.463Z,102027.38
2022-10-18T22:34:51.095Z,102049.25
2022-10-18T22:36:53.770Z,102055.38
2022-10-18T22:38:56.586Z,102044.44
2022-10-18T22:41:06.729Z,102013.47
2022-10-18T22:43:09.401Z,102018.75
2022-10-18T22:45:11.954Z,102048.47
2022-10-18T22:47:14.477Z,102047.25
2022-10-18T22:49:17.447Z,102041.81
2022-10-18T22:52:45.107Z,102060.00
2022-10-18T22:54:47.705Z,102015.72
2022-10-18T22:56:51.794Z,102045.84
2022-10-18T22:58:54.360Z,101974.44
2022-10-18T23:01:09.006Z,102046.25
2022-10-18T23:03:18.764Z,102050.72
2022-10-18T23:05:21.311Z,101923.13
2022-10-18T23:07:23.941Z,102033.16
2022-10-18T23:09:26.497Z,102027.09
2022-10-18T23:11:30.144Z,102037.00
2022-10-18T23:13:35.030Z,102036.78
2022-10-18T23:15:39.997Z,102018.78
2022-10-18T23:17:43.557Z,101978.94
2022-10-18T23:19:46.550Z,102025.44
2022-10-18T23:22:21.407Z,102040.03
2022-10-18T23:24:23.950Z,101988.44
2022-10-18T23:27:20.272Z,102060.47
2022-10-18T23:29:22.982Z,102001.81
2022-10-18T23:31:27.750Z,102055.22
2022-10-18T23:33:30.289Z,102038.41
2022-10-18T23:35:33.183Z,102032.13
2022-10-18T23:37:36.091Z,102040.00
2022-10-18T23:39:39.010Z,102032.69
2022-10-18T23:41:41.542Z,102027.63
2022-10-18T23:43:44.458Z,102043.53
2022-10-18T23:47:50.434Z,102009.53
2022-10-18T23:49:55.580Z,102025.31
2022-10-18T23:51:58.126Z,102049.75
2022-10-18T23:54:00.765Z,102005.81
2022-10-18T23:56:07.949Z,102051.69
2022-10-18T23:58:10.486Z,101897.09
